createdAt,value
2017-09-10T00:02:02.821Z,13.3
2017-09-10T00:07:02.911Z,13.3
2017-09-10T00:12:02.844Z,13.2
2017-09-10T00:17:03.597Z,13.0
2017-09-10T00:22:02.970Z,13.0
2017-09-10T00:27:02.728Z,13.0
2017-09-10T00:32:03.461Z,13.2
2017-09-10T00:37:03.173Z,13.2
2017-09-10T00:42:02.861Z,13.3
2017-09-10T00:47:03.600Z,13.4
2017-09-10T00:52:03.241Z,13.3
2017-09-10T00:57:03.108Z,13.3
2017-09-10T01:02:02.728Z,13.3
2017-09-10T01:07:03.096Z,13.3
2017-09-10T01:12:03.081Z,13.3
2017-09-10T01:17:03.020Z,13.3
2017-09-10T01:22:03.078Z,13.2
2017-09-10T01:27:02.911Z,13.1
2017-09-10T01:32:02.724Z,13.0
2017-09-10T01:37:02.784Z,12.9
2017-09-10T01:42:03.311Z,12.9
2017-09-10T01:47:03.286Z,12.8
2017-09-10T01:52:02.869Z,12.7
2017-09-10T01:57:02.638Z,12.6
2017-09-10T02:02:03.301Z,12.5
2017-09-10T02:07:03.087Z,12.5
2017-09-10T02:12:02.835Z,12.5
2017-09-10T02:17:03.568Z,12.6
2017-09-10T02:22:03.396Z,25.5
2017-09-10T02:27:03.308Z,12.8
2017-09-10T02:32:06.064Z,12.5
2017-09-10T02:37:02.816Z,12.5
2017-09-10T02:42:03.097Z,12.5
2017-09-10T02:47:03.362Z,12.4
2017-09-10T02:52:02.761Z,12.3
2017-09-10T02:57:03.023Z,12.3
2017-09-10T03:02:03.645Z,12.4
2017-09-10T03:07:02.888Z,12.5
2017-09-10T03:12:03.248Z,12.6
2017-09-10T03:17:03.517Z,12.6
2017-09-10T03:22:02.960Z,12.7
2017-09-10T03:27:03.197Z,12.7
2017-09-10T03:32:03.429Z,25.5
2017-09-10T03:37:02.882Z,12.9
2017-09-10T03:42:03.064Z,12.9
2017-09-10T03:47:03.407Z,12.9
2017-09-10T03:52:02.840Z,12.8
2017-09-10T03:57:03.057Z,12.8
2017-09-10T04:02:03.419Z,12.8
2017-09-10T04:07:02.856Z,12.9
2017-09-10T04:12:03.290Z,12.8
2017-09-10T04:17:03.963Z,12.8
2017-09-10T04:22:03.008Z,12.7
2017-09-10T04:27:03.324Z,12.7
2017-09-10T04:32:08.056Z,12.7
2017-09-10T04:37:03.017Z,12.8
2017-09-10T04:42:03.493Z,12.8
2017-09-10T04:47:14.527Z,12.8
2017-09-10T04:52:03.467Z,12.8
2017-09-10T04:57:02.947Z,13.0
2017-09-10T05:02:13.598Z,12.9
2017-09-10T05:07:02.996Z,12.9
2017-09-10T05:12:03.386Z,12.9
2017-09-10T05:17:18.191Z,12.9
2017-09-10T05:22:03.113Z,12.8
2017-09-10T05:27:03.677Z,12.9
2017-09-10T05:32:17.090Z,25.7
2017-09-10T05:37:03.014Z,12.9
2017-09-10T05:42:03.338Z,13.1
2017-09-10T05:47:13.789Z,13.3
2017-09-10T05:52:03.445Z,13.6
2017-09-10T05:57:02.995Z,13.6
2017-09-10T06:02:17.729Z,13.7
2017-09-10T06:07:03.165Z,14.0
2017-09-10T06:12:02.790Z,13.9
2017-09-10T06:17:18.015Z,14.2
2017-09-10T06:22:02.983Z,14.1
2017-09-10T06:27:03.379Z,14.2
2017-09-10T06:32:22.667Z,14.4
2017-09-10T06:37:03.300Z,14.6
2017-09-10T06:42:02.782Z,14.7
2017-09-10T06:47:13.623Z,14.7
2017-09-10T06:52:03.489Z,14.7
2017-09-10T06:57:02.942Z,14.7
2017-09-10T07:02:17.839Z,14.7
2017-09-10T07:07:03.255Z,14.6
2017-09-10T07:12:02.945Z,14.8
2017-09-10T07:17:18.021Z,15.0
2017-09-10T07:22:02.792Z,15.2
2017-09-10T07:27:03.323Z,15.2
2017-09-10T07:32:13.037Z,15.4
2017-09-10T07:37:03.384Z,15.3
2017-09-10T07:42:02.900Z,15.3
2017-09-10T07:47:13.686Z,15.2
2017-09-10T07:52:03.507Z,15.3
2017-09-10T07:57:02.988Z,15.5
2017-09-10T08:02:17.874Z,15.5
2017-09-10T08:07:03.416Z,15.6
2017-09-10T08:12:03.052Z,15.6
2017-09-10T08:17:22.898Z,15.5
2017-09-10T08:22:02.859Z,15.6
2017-09-10T08:27:03.353Z,15.6
2017-09-10T08:32:16.387Z,16.2
2017-09-10T08:37:03.146Z,16.5
2017-09-10T08:42:03.514Z,16.7
2017-09-10T08:47:13.457Z,16.9
2017-09-10T08:52:02.912Z,16.9
2017-09-10T08:57:03.288Z,17.5
2017-09-10T09:02:13.139Z,18.2
2017-09-10T09:07:03.562Z,18.8
2017-09-10T09:12:03.352Z,19.5
2017-09-10T09:17:13.495Z,20.2
2017-09-10T09:22:02.814Z,20.7
2017-09-10T09:27:03.394Z,21.4
2017-09-10T09:32:16.489Z,22.1
2017-09-10T09:37:03.186Z,22.0
2017-09-10T09:42:03.560Z,22.6
2017-09-10T09:47:17.650Z,22.7
2017-09-10T09:52:02.695Z,22.1
2017-09-10T09:57:03.200Z,21.3
2017-09-10T10:02:13.867Z,20.6
2017-09-10T10:07:03.132Z,20.5
2017-09-10T10:12:03.653Z,20.5
2017-09-10T10:17:29.212Z,20.5
2017-09-10T10:22:03.580Z,20.5
2017-09-10T10:27:03.351Z,20.9
2017-09-10T10:32:13.412Z,21.3
2017-09-10T10:37:03.237Z,21.4
2017-09-10T10:42:03.553Z,21.4
2017-09-10T10:47:17.569Z,21.4
2017-09-10T10:52:02.804Z,20.8
2017-09-10T10:57:03.220Z,20.9
2017-09-10T11:02:12.953Z,20.5
2017-09-10T11:07:02.943Z,20.6
2017-09-10T11:12:03.473Z,20.6
2017-09-10T11:17:13.412Z,21.3
2017-09-10T11:22:03.332Z,21.2
2017-09-10T11:27:02.770Z,21.5
2017-09-10T11:32:13.879Z,21.5
2017-09-10T11:37:03.137Z,21.5
2017-09-10T11:42:03.461Z,21.8
2017-09-10T11:47:17.674Z,21.9
2017-09-10T11:52:02.628Z,22.0
2017-09-10T11:57:03.026Z,21.9
2017-09-10T12:02:23.152Z,22.1
2017-09-10T12:07:03.066Z,22.3
2017-09-10T12:12:03.576Z,22.6
2017-09-10T12:17:12.972Z,22.5
2017-09-10T12:22:03.574Z,22.6
2017-09-10T12:27:03.067Z,22.5
2017-09-10T12:32:13.884Z,22.8
2017-09-10T12:37:03.096Z,22.7
2017-09-10T12:42:03.459Z,22.9
2017-09-10T12:47:13.183Z,22.9
2017-09-10T12:52:02.709Z,23.1
2017-09-10T12:57:03.228Z,23.0
2017-09-10T13:02:16.238Z,24.7
2017-09-10T13:07:03.507Z,25.5
2017-09-10T13:12:03.189Z,25.7
2017-09-10T13:17:17.157Z,25.7
2017-09-10T13:22:03.003Z,26.2
2017-09-10T13:27:03.464Z,26.9
2017-09-10T13:32:13.045Z,27.2
2017-09-10T13:37:03.339Z,26.7
2017-09-10T13:42:02.866Z,26.3
2017-09-10T13:47:13.702Z,26.3
2017-09-10T13:52:02.672Z,25.8
2017-09-10T13:57:03.205Z,25.3
2017-09-10T14:02:16.197Z,25.7
2017-09-10T14:07:03.288Z,25.6
2017-09-10T14:12:03.002Z,26.4
2017-09-10T14:17:17.421Z,27.1
2017-09-10T14:22:03.034Z,27.8
2017-09-10T14:27:03.499Z,27.8
2017-09-10T14:32:13.317Z,26.9
2017-09-10T14:37:03.519Z,28.4
2017-09-10T14:42:02.973Z,30.1
2017-09-10T14:47:13.848Z,34.4
2017-09-10T14:52:03.103Z,34.4
2017-09-10T14:57:03.453Z,31.1
2017-09-10T15:02:17.559Z,28.1
2017-09-10T15:07:03.332Z,32.1
2017-09-10T15:12:02.970Z,29.6
2017-09-10T15:17:14.058Z,29.6
2017-09-10T15:22:03.402Z,25.6
2017-09-10T15:27:02.886Z,24.8
2017-09-10T15:32:13.975Z,24.7
2017-09-10T15:37:03.459Z,24.4
2017-09-10T15:42:02.804Z,24.4
2017-09-10T15:47:13.716Z,24.4
2017-09-10T15:52:03.205Z,26.0
2017-09-10T15:57:03.522Z,34.3
2017-09-10T16:02:13.265Z,41.5
2017-09-10T16:07:03.433Z,42.0
2017-09-10T16:12:02.932Z,42.0
2017-09-10T16:17:18.020Z,41.6
2017-09-10T16:22:02.868Z,43.3
2017-09-10T16:27:03.310Z,43.3
2017-09-10T16:32:20.937Z,42.6
2017-09-10T16:37:02.909Z,42.0
2017-09-10T16:42:03.298Z,40.6
2017-09-10T16:47:13.576Z,40.5
2017-09-10T16:52:02.935Z,40.2
2017-09-10T16:57:03.397Z,40.2
2017-09-10T17:02:20.221Z,40.9
2017-09-10T17:07:02.862Z,40.9
2017-09-10T17:12:03.451Z,40.6
2017-09-10T17:17:13.463Z,32.1
2017-09-10T17:22:03.211Z,29.4
2017-09-10T17:27:03.535Z,29.3
2017-09-10T17:32:13.251Z,24.8
2017-09-10T17:37:03.396Z,23.4
2017-09-10T17:42:02.933Z,23.2
2017-09-10T17:47:13.724Z,22.2
2017-09-10T17:52:03.011Z,20.4
2017-09-10T17:57:02.940Z,20.3
2017-09-10T18:02:13.706Z,19.4
2017-09-10T18:07:03.610Z,19.3
2017-09-10T18:12:03.150Z,19.1
2017-09-10T18:17:11.021Z,18.5
2017-09-10T18:22:02.734Z,18.3
2017-09-10T18:27:03.041Z,18.2
2017-09-10T18:32:10.424Z,18.0
2017-09-10T18:37:02.823Z,17.7
2017-09-10T18:42:03.203Z,17.1
2017-09-10T18:47:03.706Z,16.8
2017-09-10T18:52:02.935Z,16.6
2017-09-10T18:57:03.199Z,16.5
2017-09-10T19:02:03.552Z,16.2
2017-09-10T19:07:02.930Z,16.2
2017-09-10T19:12:03.401Z,16.0
2017-09-10T19:17:02.971Z,15.6
2017-09-10T19:22:03.190Z,15.3
2017-09-10T19:27:03.398Z,15.1
2017-09-10T19:32:02.909Z,15.0
2017-09-10T19:37:03.172Z,14.9
2017-09-10T19:42:03.398Z,14.7
2017-09-10T19:47:02.852Z,14.6
2017-09-10T19:52:03.139Z,14.5
2017-09-10T19:57:03.493Z,14.1
2017-09-10T20:02:02.853Z,13.9
2017-09-10T20:07:03.243Z,13.9
2017-09-10T20:12:02.747Z,13.6
2017-09-10T20:17:03.068Z,13.3
2017-09-10T20:22:03.318Z,13.2
2017-09-10T20:27:02.779Z,13.0
2017-09-10T20:32:03.053Z,13.1
2017-09-10T20:37:03.345Z,13.0
2017-09-10T20:42:02.719Z,13.1
2017-09-10T20:47:03.040Z,13.1
2017-09-10T20:52:03.338Z,13.1
2017-09-10T20:57:02.687Z,13.0
2017-09-10T21:02:03.041Z,13.0
2017-09-10T21:07:03.358Z,13.0
2017-09-10T21:12:02.924Z,12.9
2017-09-10T21:17:03.245Z,12.8
2017-09-10T21:22:03.502Z,12.5
2017-09-10T21:27:02.890Z,12.3
2017-09-10T21:32:03.239Z,12.2
2017-09-10T21:37:03.431Z,12.2
2017-09-10T21:42:02.843Z,12.1
2017-09-10T21:47:03.132Z,12.0
2017-09-10T21:52:03.444Z,12.0
2017-09-10T21:57:02.751Z,12.0
2017-09-10T22:02:03.166Z,11.9
2017-09-10T22:07:03.496Z,11.9
2017-09-10T22:12:02.741Z,11.8
2017-09-10T22:22:03.243Z,11.7
2017-09-10T22:27:03.422Z,11.6
2017-09-10T22:32:03.110Z,11.6
2017-09-10T22:37:03.438Z,11.5
2017-09-10T22:42:03.139Z,11.5
2017-09-10T22:47:02.699Z,11.5
2017-09-10T22:52:03.089Z,11.5
2017-09-10T22:57:02.766Z,11.3
2017-09-10T23:02:03.419Z,11.2
2017-09-10T23:07:03.048Z,11.1
2017-09-10T23:12:02.997Z,11.0
2017-09-10T23:17:03.039Z,11.0
2017-09-10T23:22:03.596Z,11.0
2017-09-10T23:27:03.304Z,10.9
2017-09-10T23:32:03.226Z,11.0
2017-09-10T23:37:03.493Z,10.9
2017-09-10T23:42:03.355Z,10.9
2017-09-10T23:47:03.302Z,10.8
2017-09-10T23:52:03.361Z,10.7
2017-09-10T23:57:03.169Z,10.7
